Time;durP1;ratioP1;P1;durP2;ratioP2;P2;SDS_P1;SDS_P2;PMS_P1;PMS_P2;Temp;Humidity;BMP_temperature;BMP_pressure;BME280_temperature;BME280_humidity;BME280_pressure;Samples;Min_cycle;Max_cycle;Signal;HPM_P1;HPM_P2
2021/01/06 00:00:19;;;;;;;71.93;35.35;;;1.30;90.70;;;;;;5093453;28;20024;-85
2021/01/06 00:02:45;;;;;;;77.90;37.15;;;1.40;90.60;;;;;;5075883;28;20082;-86
2021/01/06 00:05:17;;;;;;;72.78;34.22;;;1.30;90.60;;;;;;5073360;28;20021;-87
2021/01/06 00:07:44;;;;;;;83.07;37.83;;;1.30;90.60;;;;;;5087556;28;20020;-86
2021/01/06 00:10:13;;;;;;;71.90;33.45;;;1.30;90.50;;;;;;5073398;28;20025;-86
2021/01/06 00:12:42;;;;;;;75.85;36.28;;;1.40;90.60;;;;;;5078734;28;20489;-86
2021/01/06 00:15:23;;;;;;;76.28;35.83;;;1.40;90.60;;;;;;5089318;28;20020;-87
2021/01/06 00:17:48;;;;;;;78.80;37.42;;;1.40;90.60;;;;;;5093441;28;20020;-86
2021/01/06 00:20:15;;;;;;;78.07;34.20;;;1.40;90.60;;;;;;5094614;28;20154;-86
2021/01/06 00:22:41;;;;;;;69.13;32.78;;;1.40;90.60;;;;;;5093016;28;20039;-86
2021/01/06 00:25:09;;;;;;;65.93;31.42;;;1.40;90.60;;;;;;5093185;28;20020;-86
2021/01/06 00:27:34;;;;;;;77.35;36.55;;;1.40;90.60;;;;;;5092919;28;20496;-85
2021/01/06 00:30:01;;;;;;;68.45;34.30;;;1.40;90.50;;;;;;5092588;28;20114;-85
2021/01/06 00:32:26;;;;;;;79.53;38.13;;;1.40;90.60;;;;;;5078973;28;20394;-86
2021/01/06 00:34:52;;;;;;;75.57;36.00;;;1.40;90.50;;;;;;5086538;28;20032;-86
2021/01/06 00:37:18;;;;;;;74.75;35.13;;;1.40;90.40;;;;;;5093103;28;20031;-87
2021/01/06 00:39:43;;;;;;;80.47;36.28;;;1.40;90.40;;;;;;5079749;28;20021;-87
2021/01/06 00:42:09;;;;;;;61.83;29.85;;;1.40;90.50;;;;;;5072897;28;20016;-87
2021/01/06 00:44:35;;;;;;;73.65;33.90;;;1.40;90.50;;;;;;5073839;28;20470;-87
2021/01/06 00:47:01;;;;;;;70.85;32.65;;;1.40;90.60;;;;;;5083202;28;20470;-87
2021/01/06 00:49:26;;;;;;;71.47;33.00;;;1.40;90.60;;;;;;5092200;28;20080;-87
2021/01/06 00:51:52;;;;;;;83.57;38.15;;;1.50;90.60;;;;;;5082252;28;20115;-86
2021/01/06 00:54:18;;;;;;;89.32;39.78;;;1.40;90.40;;;;;;5072848;28;20073;-83
2021/01/06 00:56:43;;;;;;;69.78;32.13;;;1.40;90.50;;;;;;5070993;28;20056;-84
2021/01/06 00:59:09;;;;;;;71.47;34.88;;;1.40;90.50;;;;;;5071398;28;20028;-90
2021/01/06 01:01:35;;;;;;;72.63;34.15;;;1.40;90.50;;;;;;5079322;28;20562;-90
2021/01/06 01:04:02;;;;;;;80.53;36.33;;;1.40;90.60;;;;;;5105049;28;20043;-91
2021/01/06 01:06:30;;;;;;;68.63;32.03;;;1.40;90.50;;;;;;5092641;28;20024;-89
2021/01/06 01:08:56;;;;;;;69.22;31.92;;;1.40;90.60;;;;;;5077852;28;20075;-90
2021/01/06 01:11:22;;;;;;;82.38;40.17;;;1.50;90.60;;;;;;5072370;28;20020;-92
2021/01/06 01:13:53;;;;;;;76.57;34.47;;;1.40;90.40;;;;;;5071898;28;20557;-86
2021/01/06 01:16:20;;;;;;;71.35;33.83;;;1.40;90.50;;;;;;5083938;28;20036;-87
2021/01/06 01:18:47;;;;;;;76.22;36.13;;;1.40;90.50;;;;;;5090921;28;20028;-88
2021/01/06 01:21:17;;;;;;;72.30;32.33;;;1.40;90.50;;;;;;5076209;28;20377;-85
2021/01/06 01:23:43;;;;;;;73.35;33.10;;;1.50;90.60;;;;;;5092485;28;20066;-79
2021/01/06 01:26:10;;;;;;;76.50;34.08;;;1.50;90.50;;;;;;5086809;28;20029;-79
2021/01/06 01:28:36;;;;;;;72.78;32.17;;;1.50;90.40;;;;;;5090973;28;20377;-79
2021/01/06 01:31:02;;;;;;;75.07;34.90;;;1.40;90.40;;;;;;5088777;28;20024;-78
2021/01/06 01:33:28;;;;;;;71.88;32.35;;;1.50;90.40;;;;;;5071099;28;20039;-80
2021/01/06 01:35:54;;;;;;;61.50;31.55;;;1.50;90.50;;;;;;5070787;28;20032;-78
2021/01/06 01:38:27;;;;;;;69.60;32.47;;;1.50;90.50;;;;;;5086898;28;20048;-79
2021/01/06 01:41:02;;;;;;;66.30;31.67;;;1.50;90.60;;;;;;5077661;28;20035;-79
2021/01/06 01:43:29;;;;;;;74.38;35.83;;;1.50;90.50;;;;;;5074303;28;20078;-77
2021/01/06 01:45:55;;;;;;;70.50;32.30;;;1.50;90.50;;;;;;5088256;28;20032;-79
2021/01/06 01:48:28;;;;;;;71.10;32.33;;;1.50;90.50;;;;;;5094358;28;20028;-78
2021/01/06 01:51:08;;;;;;;74.95;32.67;;;1.50;90.50;;;;;;5096778;28;20058;-78
2021/01/06 01:53:39;;;;;;;84.85;38.30;;;1.40;90.40;;;;;;5096666;28;20865;-77
2021/01/06 01:56:08;;;;;;;71.85;32.45;;;1.40;90.40;;;;;;5092103;28;20498;-79
2021/01/06 01:58:35;;;;;;;73.35;33.50;;;1.40;90.50;;;;;;5075250;28;20111;-79
2021/01/06 02:01:03;;;;;;;69.18;30.73;;;1.50;90.50;;;;;;5081365;28;20437;-79
2021/01/06 02:03:52;;;;;;;66.13;30.58;;;1.50;90.50;;;;;;5085055;28;20115;-78
2021/01/06 02:06:20;;;;;;;66.80;31.38;;;1.50;90.50;;;;;;5074948;28;20074;-79
2021/01/06 02:09:18;;;;;;;71.20;34.42;;;1.50;90.50;;;;;;5077835;28;20052;-81
2021/01/06 02:12:00;;;;;;;70.60;31.13;;;1.50;90.50;;;;;;5095457;28;20036;-78
2021/01/06 02:14:39;;;;;;;77.53;32.17;;;1.60;90.50;;;;;;5094806;28;20457;-79
2021/01/06 02:17:11;;;;;;;73.90;32.63;;;1.50;90.40;;;;;;5088717;28;20025;-79
2021/01/06 02:19:43;;;;;;;73.00;33.22;;;1.50;90.40;;;;;;5074715;28;20409;-79
2021/01/06 02:22:17;;;;;;;82.03;34.45;;;1.50;90.40;;;;;;5074544;28;20071;-82
2021/01/06 02:24:45;;;;;;;86.18;35.83;;;1.50;90.40;;;;;;5076077;28;20046;-84
2021/01/06 02:27:11;;;;;;;86.03;34.08;;;1.50;90.40;;;;;;5074921;28;20081;-82
2021/01/06 02:29:38;;;;;;;73.85;33.70;;;1.50;90.40;;;;;;5089087;28;20027;-84
2021/01/06 02:32:05;;;;;;;78.38;36.15;;;1.40;90.40;;;;;;5094085;28;20031;-83
2021/01/06 02:34:33;;;;;;;80.05;35.00;;;1.40;90.40;;;;;;5095083;28;20032;-83
2021/01/06 02:36:58;;;;;;;79.57;32.92;;;1.40;90.40;;;;;;5095656;28;20056;-84
2021/01/06 02:39:25;;;;;;;79.50;32.83;;;1.40;90.50;;;;;;5095630;28;20058;-83
2021/01/06 02:41:51;;;;;;;80.45;33.28;;;1.40;90.40;;;;;;5095210;28;20466;-84
2021/01/06 02:44:17;;;;;;;80.53;34.88;;;1.50;90.40;;;;;;5087039;28;20020;-85
2021/01/06 02:46:43;;;;;;;88.65;36.03;;;1.40;90.50;;;;;;5094812;28;20038;-82
2021/01/06 02:49:10;;;;;;;83.55;35.30;;;1.40;90.50;;;;;;5094303;28;20024;-84
2021/01/06 02:52:11;;;;;;;89.72;32.67;;;1.40;90.50;;;;;;5093232;28;20105;-86
2021/01/06 02:54:40;;;;;;;77.85;33.53;;;1.50;90.50;;;;;;5093700;28;20027;-83
2021/01/06 02:57:08;;;;;;;74.47;32.20;;;1.40;90.50;;;;;;5082321;28;20040;-83
2021/01/06 02:59:39;;;;;;;78.55;30.92;;;1.40;90.50;;;;;;5074455;28;20021;-82
2021/01/06 03:02:07;;;;;;;83.05;32.80;;;1.50;90.60;;;;;;5090634;28;20670;-82
2021/01/06 03:04:37;;;;;;;101.28;39.75;;;1.50;90.60;;;;;;5073526;28;20421;-82
2021/01/06 03:07:05;;;;;;;100.00;38.75;;;1.50;90.80;;;;;;5084001;28;20032;-82
2021/01/06 03:09:37;;;;;;;93.68;35.78;;;1.40;90.70;;;;;;5088420;28;20035;-82
2021/01/06 03:12:17;;;;;;;89.50;33.33;;;1.40;90.70;;;;;;5074363;28;20052;-83
2021/01/06 03:14:43;;;;;;;118.53;40.17;;;1.50;90.70;;;;;;5090132;28;20478;-82
2021/01/06 03:17:11;;;;;;;90.03;34.35;;;1.50;90.80;;;;;;5073274;28;20024;-82
2021/01/06 03:19:42;;;;;;;88.28;32.95;;;1.50;90.70;;;;;;5072863;28;20370;-83
2021/01/06 03:22:11;;;;;;;103.00;37.33;;;1.50;90.70;;;;;;5072904;28;20025;-83
2021/01/06 03:24:43;;;;;;;101.78;35.03;;;1.50;90.70;;;;;;5073209;28;20031;-83
2021/01/06 03:27:11;;;;;;;93.40;34.17;;;1.50;90.70;;;;;;5073833;28;20028;-83
2021/01/06 03:29:38;;;;;;;100.88;38.22;;;1.50;90.60;;;;;;5072774;28;20551;-83
2021/01/06 03:32:13;;;;;;;94.50;36.53;;;1.60;90.70;;;;;;5072950;28;20492;-84
2021/01/06 03:34:48;;;;;;;87.60;34.28;;;1.50;90.70;;;;;;5074081;28;20478;-84
2021/01/06 03:37:31;;;;;;;89.45;34.78;;;1.50;90.70;;;;;;5074831;28;20478;-83
2021/01/06 03:40:08;;;;;;;91.25;33.55;;;1.50;90.70;;;;;;5072855;28;20074;-82
2021/01/06 03:42:35;;;;;;;115.28;39.63;;;1.50;90.70;;;;;;5072582;28;20370;-83
2021/01/06 03:45:03;;;;;;;102.18;36.13;;;1.50;90.70;;;;;;5073319;28;20021;-84
2021/01/06 03:47:33;;;;;;;89.38;35.17;;;1.60;90.70;;;;;;5091306;28;20110;-83
2021/01/06 03:50:28;;;;;;;87.75;30.63;;;1.60;90.70;;;;;;5094544;28;20028;-83
2021/01/06 03:53:08;;;;;;;89.63;34.42;;;1.60;90.70;;;;;;5105524;28;20549;-83
2021/01/06 03:56:00;;;;;;;86.47;32.10;;;1.60;90.60;;;;;;5092964;28;20070;-83
2021/01/06 03:58:54;;;;;;;93.38;34.35;;;1.60;90.60;;;;;;5094639;28;20016;-83
2021/01/06 04:01:36;;;;;;;96.75;34.72;;;1.50;90.70;;;;;;5078567;28;20077;-83
2021/01/06 04:04:33;;;;;;;99.55;35.38;;;1.50;90.70;;;;;;5072850;28;20051;-82
2021/01/06 04:07:01;;;;;;;92.15;33.97;;;1.60;90.70;;;;;;5089397;28;20028;-83
2021/01/06 04:09:29;;;;;;;92.65;32.63;;;1.60;90.70;;;;;;5072624;28;20028;-83
2021/01/06 04:12:16;;;;;;;89.68;34.13;;;1.60;90.70;;;;;;5072605;28;20119;-84
2021/01/06 04:14:43;;;;;;;105.47;37.35;;;1.60;90.80;;;;;;5072504;28;20031;-83
2021/01/06 04:17:21;;;;;;;103.53;37.08;;;1.60;90.80;;;;;;5073843;28;20020;-83
2021/01/06 04:19:49;;;;;;;102.75;35.17;;;1.60;90.80;;;;;;5072595;28;20032;-82
2021/01/06 04:22:22;;;;;;;102.18;35.65;;;1.60;90.80;;;;;;5072808;28;20073;-88
2021/01/06 04:24:48;;;;;;;107.97;36.08;;;1.60;90.80;;;;;;5072546;28;20016;-83
2021/01/06 04:27:18;;;;;;;94.70;32.92;;;1.60;90.70;;;;;;5072385;28;20488;-83
2021/01/06 04:29:44;;;;;;;97.53;34.85;;;1.60;90.80;;;;;;5072668;28;20176;-83
2021/01/06 04:32:09;;;;;;;90.57;33.83;;;1.60;90.70;;;;;;5072477;28;20032;-82
2021/01/06 04:34:35;;;;;;;99.45;32.65;;;1.60;90.70;;;;;;5072600;28;20028;-83
2021/01/06 04:37:01;;;;;;;108.05;37.10;;;1.60;90.80;;;;;;5072364;28;20028;-83
2021/01/06 04:39:27;;;;;;;114.50;36.08;;;1.60;90.80;;;;;;5072405;28;20367;-84
2021/01/06 04:42:11;;;;;;;122.10;40.05;;;1.50;90.80;;;;;;5089187;28;20061;-84
2021/01/06 04:44:57;;;;;;;123.20;37.53;;;1.50;91.00;;;;;;5092608;28;20016;-83
2021/01/06 04:47:52;;;;;;;121.00;36.70;;;1.50;91.00;;;;;;5094037;28;20024;-83
2021/01/06 04:50:55;;;;;;;117.25;36.85;;;1.50;91.00;;;;;;5091115;28;20412;-82
2021/01/06 04:53:32;;;;;;;101.63;34.00;;;1.50;91.00;;;;;;5091914;28;20024;-82
2021/01/06 04:56:31;;;;;;;119.05;35.85;;;1.50;91.00;;;;;;5092948;28;20044;-82
2021/01/06 04:59:15;;;;;;;112.15;35.15;;;1.50;91.00;;;;;;5093414;28;20044;-84
2021/01/06 05:02:02;;;;;;;113.40;36.50;;;1.50;91.10;;;;;;5090204;28;20055;-89
2021/01/06 05:04:53;;;;;;;108.90;34.38;;;1.50;91.20;;;;;;5085449;28;20020;-86
2021/01/06 05:07:53;;;;;;;136.77;40.30;;;1.40;91.20;;;;;;5088356;28;20060;-83
2021/01/06 05:10:36;;;;;;;129.02;39.55;;;1.40;91.40;;;;;;5071848;28;20036;-85
2021/01/06 05:13:34;;;;;;;117.60;34.35;;;1.30;91.50;;;;;;5072172;28;20032;-85
2021/01/06 05:16:27;;;;;;;103.03;32.70;;;1.40;91.50;;;;;;5047503;28;20157;-85
2021/01/06 05:18:53;;;;;;;113.45;33.83;;;1.40;91.60;;;;;;5091293;28;20089;-86
2021/01/06 05:21:21;;;;;;;100.15;32.83;;;1.40;91.40;;;;;;5089994;28;20036;-86
2021/01/06 05:23:51;;;;;;;117.60;36.42;;;1.40;91.40;;;;;;5095742;28;20020;-85
2021/01/06 05:26:17;;;;;;;114.45;35.67;;;1.40;91.40;;;;;;5095448;28;20115;-85
2021/01/06 05:28:46;;;;;;;111.25;35.83;;;1.40;91.50;;;;;;5096814;28;20373;-83
2021/01/06 05:31:12;;;;;;;111.90;34.65;;;1.40;91.70;;;;;;5095340;28;20477;-82
2021/01/06 05:33:50;;;;;;;110.55;33.97;;;1.40;91.70;;;;;;5095307;28;20035;-80
2021/01/06 05:36:29;;;;;;;107.20;37.05;;;1.40;91.50;;;;;;5096377;28;20035;-84
2021/01/06 05:39:02;;;;;;;117.00;35.50;;;1.40;91.50;;;;;;5117121;28;20023;-85
2021/01/06 05:41:28;;;;;;;119.20;37.38;;;1.50;91.60;;;;;;5115758;28;20106;-85
2021/01/06 05:43:55;;;;;;;104.13;34.55;;;1.40;91.50;;;;;;5115495;28;20157;-84
2021/01/06 05:46:31;;;;;;;116.60;37.30;;;1.40;91.50;;;;;;5117201;28;20038;-86
2021/01/06 05:49:22;;;;;;;101.90;32.63;;;1.50;91.60;;;;;;5115870;28;20365;-84
2021/01/06 05:51:58;;;;;;;183.98;47.78;;;1.50;91.50;;;;;;5116402;28;20027;-83
2021/01/06 05:54:36;;;;;;;125.45;36.78;;;1.40;91.80;;;;;;5116511;28;20560;-84
2021/01/06 05:57:10;;;;;;;132.07;39.50;;;1.40;91.80;;;;;;5115623;28;20044;-84
2021/01/06 05:59:51;;;;;;;109.70;34.47;;;1.40;91.80;;;;;;5116077;28;20020;-84
2021/01/06 06:02:29;;;;;;;100.75;31.05;;;1.40;92.10;;;;;;5116133;28;20027;-83
2021/01/06 06:05:46;;;;;;;139.40;41.33;;;1.50;91.70;;;;;;5115805;28;20020;-84
2021/01/06 06:08:24;;;;;;;133.52;37.35;;;1.40;92.10;;;;;;5077309;27;20050;-85
2021/01/06 06:11:26;;;;;;;150.43;41.55;;;1.40;92.00;;;;;;5115845;28;20019;-84
2021/01/06 06:14:11;;;;;;;178.40;43.70;;;1.40;92.10;;;;;;5116037;28;20116;-83
2021/01/06 06:17:08;;;;;;;122.68;35.92;;;1.50;92.10;;;;;;5117024;28;20024;-84
2021/01/06 06:19:52;;;;;;;124.75;35.05;;;1.40;92.00;;;;;;5115969;28;20023;-84
2021/01/06 06:22:32;;;;;;;118.10;34.78;;;1.50;91.90;;;;;;5115388;28;20020;-83
2021/01/06 06:25:04;;;;;;;219.30;47.45;;;1.50;91.80;;;;;;5115327;28;20131;-81
2021/01/06 06:27:56;;;;;;;141.02;39.40;;;1.50;92.20;;;;;;5116689;28;20031;-82
2021/01/06 06:30:50;;;;;;;141.00;37.47;;;1.50;92.10;;;;;;5115445;28;20047;-83
2021/01/06 06:33:25;;;;;;;217.23;44.15;;;1.40;92.20;;;;;;5109606;28;20504;-82
2021/01/06 06:35:51;;;;;;;168.55;40.15;;;1.40;92.10;;;;;;5098611;28;20068;-82
2021/01/06 06:38:18;;;;;;;116.47;32.58;;;1.50;92.20;;;;;;5097913;28;20055;-83
2021/01/06 06:40:52;;;;;;;120.57;34.95;;;1.50;92.00;;;;;;5114538;28;20023;-83
2021/01/06 06:43:43;;;;;;;146.20;36.83;;;1.50;92.00;;;;;;5116401;28;20107;-82
2021/01/06 06:46:32;;;;;;;140.43;36.83;;;1.60;92.00;;;;;;5105236;28;20092;-82
2021/01/06 06:49:22;;;;;;;104.95;32.90;;;1.60;92.00;;;;;;5114681;28;20024;-82
2021/01/06 06:52:20;;;;;;;141.35;36.03;;;1.60;92.00;;;;;;5115717;28;20055;-82
2021/01/06 06:55:28;;;;;;;130.75;36.97;;;1.70;92.00;;;;;;5107983;28;20040;-81
2021/01/06 06:58:32;;;;;;;143.43;34.75;;;1.70;92.10;;;;;;5080098;28;20405;-82
2021/01/06 07:01:04;;;;;;;155.07;39.67;;;1.70;92.00;;;;;;5113005;28;20031;-83
2021/01/06 07:03:31;;;;;;;145.30;38.55;;;1.70;92.10;;;;;;5114277;28;20024;-82
2021/01/06 07:06:02;;;;;;;300.77;56.60;;;1.70;92.20;;;;;;5113988;28;20080;-83
2021/01/06 07:08:33;;;;;;;139.93;39.10;;;1.80;92.30;;;;;;5114622;28;20019;-82
2021/01/06 07:11:18;;;;;;;286.48;49.03;;;1.70;92.20;;;;;;5115422;28;20023;-83
2021/01/06 07:13:47;;;;;;;118.57;34.55;;;1.80;92.20;;;;;;5114925;28;20517;-82
2021/01/06 07:16:33;;;;;;;129.95;37.90;;;1.80;92.20;;;;;;5113622;28;20077;-81
2021/01/06 07:19:30;;;;;;;142.55;39.13;;;1.90;92.40;;;;;;5113722;28;20122;-80
2021/01/06 07:22:35;;;;;;;142.98;37.95;;;1.90;92.20;;;;;;5114266;28;20023;-90
2021/01/06 07:25:08;;;;;;;143.88;38.88;;;1.90;92.30;;;;;;5112956;28;20477;-89
2021/01/06 07:27:36;;;;;;;178.30;40.30;;;2.00;92.20;;;;;;5115797;28;20036;-90
2021/01/06 07:30:04;;;;;;;141.00;36.20;;;2.00;92.20;;;;;;5097860;28;20074;-90
2021/01/06 07:32:41;;;;;;;113.95;35.47;;;2.00;92.10;;;;;;5115202;27;20027;-89
2021/01/06 07:35:11;;;;;;;128.68;36.78;;;2.10;92.10;;;;;;5115550;28;20106;-89
2021/01/06 07:37:44;;;;;;;129.77;36.78;;;2.10;92.10;;;;;;5115216;28;20106;-89
2021/01/06 07:40:42;;;;;;;132.13;33.83;;;2.10;92.00;;;;;;5114085;28;20488;-84
2021/01/06 07:43:08;;;;;;;115.93;32.10;;;2.20;92.00;;;;;;5125469;27;20427;-83
2021/01/06 07:45:39;;;;;;;103.68;34.50;;;2.20;92.00;;;;;;5113824;28;20092;-90
2021/01/06 07:48:27;;;;;;;123.95;35.00;;;2.20;92.00;;;;;;5115865;28;20023;-89
2021/01/06 07:51:16;;;;;;;116.63;31.17;;;2.30;91.90;;;;;;5114335;28;20020;-90
2021/01/06 07:53:56;;;;;;;113.60;32.17;;;2.30;91.90;;;;;;5115744;28;20076;-90
2021/01/06 07:56:45;;;;;;;134.40;35.40;;;2.30;91.80;;;;;;5116034;28;20122;-89
2021/01/06 07:59:26;;;;;;;253.65;48.97;;;2.30;92.30;;;;;;5114541;28;20031;-89
2021/01/06 08:02:19;;;;;;;131.23;34.95;;;2.30;92.20;;;;;;5115972;28;20077;-89
2021/01/06 08:05:04;;;;;;;166.52;36.42;;;2.30;92.10;;;;;;5104342;28;20031;-89
2021/01/06 08:07:29;;;;;;;153.07;35.03;;;2.20;92.00;;;;;;5114308;28;20028;-89
2021/01/06 08:09:55;;;;;;;155.57;40.85;;;2.30;92.00;;;;;;5097906;28;20042;-89
2021/01/06 08:12:41;;;;;;;133.18;34.90;;;2.30;92.20;;;;;;5080217;28;20127;-89
2021/01/06 08:15:18;;;;;;;144.95;39.30;;;2.30;92.10;;;;;;5114353;28;20028;-89
2021/01/06 08:17:51;;;;;;;128.90;33.80;;;2.30;92.10;;;;;;5114384;28;20077;-89
2021/01/06 08:20:37;;;;;;;197.70;39.38;;;2.30;92.00;;;;;;5114085;28;20016;-89
2021/01/06 08:23:15;;;;;;;239.13;42.25;;;2.40;92.10;;;;;;5109292;28;20465;-88
2021/01/06 08:25:52;;;;;;;116.70;33.90;;;2.40;92.00;;;;;;5113958;28;20019;-89
2021/01/06 08:28:25;;;;;;;155.90;33.75;;;2.40;92.00;;;;;;5114188;28;20055;-89
2021/01/06 08:30:51;;;;;;;164.85;39.38;;;2.40;92.00;;;;;;5115158;28;20027;-89
2021/01/06 08:33:19;;;;;;;192.52;39.67;;;2.40;92.10;;;;;;5113820;28;20034;-86
2021/01/06 08:35:49;;;;;;;133.10;35.80;;;2.40;92.00;;;;;;5090325;28;20024;-86
2021/01/06 08:38:30;;;;;;;151.25;38.22;;;2.40;92.10;;;;;;5080166;28;20051;-87
2021/01/06 08:41:22;;;;;;;132.10;35.03;;;2.40;92.10;;;;;;5093115;28;20118;-88
2021/01/06 08:43:49;;;;;;;166.18;39.50;;;2.50;92.10;;;;;;5093131;28;20533;-86
2021/01/06 08:46:21;;;;;;;138.00;34.75;;;2.40;92.20;;;;;;5073669;28;20043;-88
2021/01/06 08:48:46;;;;;;;111.40;33.88;;;2.50;92.20;;;;;;5072907;28;20031;-89
2021/01/06 08:51:15;;;;;;;111.68;31.30;;;2.60;92.20;;;;;;5072647;28;20028;-89
2021/01/06 08:53:43;;;;;;;203.18;41.45;;;2.60;92.10;;;;;;5072345;28;20474;-77
2021/01/06 08:56:24;;;;;;;113.32;33.08;;;2.70;92.00;;;;;;5071416;28;20070;-79
2021/01/06 08:58:55;;;;;;;108.05;31.67;;;2.70;92.00;;;;;;5071726;28;20016;-76
2021/01/06 09:01:27;;;;;;;106.97;32.63;;;2.80;92.00;;;;;;5071673;28;20082;-82
2021/01/06 09:04:01;;;;;;;100.00;30.67;;;2.80;92.00;;;;;;5073753;28;20044;-81
2021/01/06 09:06:29;;;;;;;163.68;40.40;;;2.90;91.90;;;;;;5071963;28;20032;-82
2021/01/06 09:09:04;;;;;;;101.60;30.75;;;2.90;91.90;;;;;;5071477;28;20040;-76
2021/01/06 09:11:44;;;;;;;95.88;31.02;;;2.90;91.90;;;;;;5072724;28;20059;-76
2021/01/06 09:14:21;;;;;;;127.00;36.13;;;3.00;91.80;;;;;;5071500;28;20032;-76
2021/01/06 09:16:50;;;;;;;92.40;29.45;;;2.90;91.70;;;;;;5072876;28;20386;-77
2021/01/06 09:19:28;;;;;;;101.55;29.58;;;3.00;91.70;;;;;;5071646;28;20070;-78
2021/01/06 09:21:56;;;;;;;102.68;32.28;;;3.00;91.70;;;;;;5072785;28;20020;-77
2021/01/06 09:24:32;;;;;;;98.90;29.98;;;3.00;91.70;;;;;;5054968;28;20028;-78
2021/01/06 09:27:28;;;;;;;105.15;34.75;;;3.10;91.70;;;;;;5071359;28;20052;-78
2021/01/06 09:29:55;;;;;;;100.35;31.25;;;3.10;91.70;;;;;;5071451;28;20475;-78
2021/01/06 09:32:28;;;;;;;90.13;29.42;;;3.20;91.70;;;;;;5088153;28;20048;-78
2021/01/06 09:35:06;;;;;;;104.57;33.28;;;3.20;91.70;;;;;;5071580;28;20028;-78
2021/01/06 09:37:35;;;;;;;95.25;31.15;;;3.20;91.60;;;;;;5070910;28;20031;-77
2021/01/06 09:40:19;;;;;;;94.65;29.45;;;3.20;91.60;;;;;;5072036;28;20502;-77
2021/01/06 09:43:05;;;;;;;101.07;32.35;;;3.20;91.40;;;;;;5070938;28;20037;-77
2021/01/06 09:45:33;;;;;;;110.65;34.08;;;3.20;91.50;;;;;;5070229;28;20108;-77
2021/01/06 09:48:04;;;;;;;101.60;31.58;;;3.20;91.50;;;;;;5071990;28;20370;-85
2021/01/06 09:50:41;;;;;;;101.43;34.63;;;3.30;91.60;;;;;;5073884;28;20108;-80
2021/01/06 09:53:14;;;;;;;91.72;33.45;;;3.30;91.60;;;;;;5071766;28;20036;-80
2021/01/06 09:55:44;;;;;;;103.07;33.13;;;3.40;91.60;;;;;;5071657;28;20053;-80
2021/01/06 09:58:27;;;;;;;184.45;46.03;;;3.40;91.60;;;;;;5071789;28;20039;-79
2021/01/06 10:01:01;;;;;;;109.93;35.63;;;3.40;91.40;;;;;;5072816;28;20024;-80
2021/01/06 10:03:34;;;;;;;150.18;42.78;;;3.40;91.50;;;;;;5072668;28;20017;-80
2021/01/06 10:06:32;;;;;;;107.22;36.10;;;3.30;91.40;;;;;;5059457;28;20545;-80
2021/01/06 10:09:05;;;;;;;190.27;43.75;;;3.30;91.50;;;;;;5075807;28;20115;-81
2021/01/06 10:11:56;;;;;;;110.13;36.15;;;3.30;91.40;;;;;;5076021;28;20028;-80
2021/01/06 10:14:39;;;;;;;124.20;37.37;;;3.30;91.50;;;;;;5075795;28;20058;-81
2021/01/06 10:17:23;;;;;;;176.45;45.70;;;3.30;91.50;;;;;;5076237;28;20381;-80
2021/01/06 10:20:03;;;;;;;111.05;36.78;;;3.30;91.40;;;;;;5076210;28;20055;-81
2021/01/06 10:22:52;;;;;;;104.85;36.15;;;3.40;91.60;;;;;;5076390;28;20016;-81
2021/01/06 10:25:20;;;;;;;118.50;39.70;;;3.40;91.60;;;;;;5075154;28;20020;-81
2021/01/06 10:28:20;;;;;;;123.05;41.97;;;3.40;91.60;;;;;;5075055;28;20025;-81
2021/01/06 10:31:12;;;;;;;115.93;39.88;;;3.40;91.60;;;;;;5076044;28;20032;-81
2021/01/06 10:34:13;;;;;;;116.63;37.30;;;3.40;91.60;;;;;;5075788;28;20036;-81
2021/01/06 10:37:02;;;;;;;121.35;38.70;;;3.50;91.70;;;;;;5058171;28;20024;-81
2021/01/06 10:39:54;;;;;;;108.10;36.30;;;3.50;91.60;;;;;;5014325;28;20432;-80
2021/01/06 10:42:20;;;;;;;102.97;33.67;;;3.50;91.60;;;;;;5074880;28;20078;-80
2021/01/06 10:44:50;;;;;;;101.60;32.97;;;3.50;91.50;;;;;;5074440;28;20021;-81
2021/01/06 10:47:36;;;;;;;;;;;3.60;91.60;;;;;;5076169;28;20432;-81
2021/01/06 10:50:04;;;;;;;97.03;30.58;;;3.50;91.50;;;;;;5074348;28;20350;-79
2021/01/06 10:52:51;;;;;;;97.53;32.35;;;3.60;91.50;;;;;;5074524;28;20119;-80
2021/01/06 10:55:37;;;;;;;97.38;30.70;;;3.60;91.50;;;;;;5074041;28;20028;-80
2021/01/06 10:58:09;;;;;;;82.15;25.33;;;3.60;91.50;;;;;;5075485;28;20048;-81
2021/01/06 11:00:56;;;;;;;85.82;26.70;;;3.70;91.60;;;;;;5074566;28;20102;-80
2021/01/06 11:03:59;;;;;;;76.82;24.40;;;3.80;91.60;;;;;;5074083;28;20470;-80
2021/01/06 11:06:33;;;;;;;84.57;28.98;;;3.80;91.40;;;;;;5090924;28;20032;-81
2021/01/06 11:09:21;;;;;;;71.60;25.45;;;3.70;91.20;;;;;;5074133;28;20123;-81
2021/01/06 11:12:14;;;;;;;76.03;25.90;;;3.70;91.20;;;;;;5090782;28;20028;-81
2021/01/06 11:15:02;;;;;;;78.93;27.52;;;3.70;91.30;;;;;;5075123;28;20113;-78
2021/01/06 11:17:35;;;;;;;159.00;33.58;;;3.70;91.30;;;;;;5082159;28;20027;-78
2021/01/06 11:20:05;;;;;;;83.38;28.25;;;3.60;91.20;;;;;;5076696;28;20470;-78
2021/01/06 11:22:44;;;;;;;96.43;31.88;;;3.70;91.30;;;;;;5093160;28;20110;-79
2021/01/06 11:25:41;;;;;;;122.25;30.33;;;3.70;91.30;;;;;;5094045;28;20052;-78
2021/01/06 11:28:47;;;;;;;117.80;28.88;;;3.70;91.30;;;;;;5093818;28;20027;-78
2021/01/06 11:31:21;;;;;;;110.80;28.48;;;3.60;91.20;;;;;;4996562;28;20022;-79
2021/01/06 11:34:10;;;;;;;105.93;29.42;;;3.60;91.20;;;;;;5012942;28;20025;-79
2021/01/06 11:36:45;;;;;;;274.67;36.42;;;3.60;91.20;;;;;;5058706;28;20477;-78
2021/01/06 11:39:40;;;;;;;117.07;33.45;;;3.50;91.20;;;;;;5094906;28;20036;-78
2021/01/06 11:42:12;;;;;;;101.53;31.75;;;3.40;91.40;;;;;;5106261;28;20111;-77
2021/01/06 11:45:10;;;;;;;91.40;30.50;;;3.40;91.40;;;;;;5086033;28;20023;-78
2021/01/06 11:47:47;;;;;;;88.95;29.83;;;3.50;91.50;;;;;;5093265;28;20160;-78
2021/01/06 11:50:29;;;;;;;98.40;31.10;;;3.50;91.50;;;;;;5094136;28;20028;-78
2021/01/06 11:53:09;;;;;;;289.02;46.20;;;3.50;91.50;;;;;;5085063;28;20029;-78
2021/01/06 11:55:40;;;;;;;220.05;42.17;;;3.50;91.50;;;;;;5081987;28;20060;-77
2021/01/06 11:58:28;;;;;;;281.35;57.40;;;3.40;91.50;;;;;;5093920;28;20097;-78
2021/01/06 12:01:13;;;;;;;313.77;56.08;;;3.40;91.50;;;;;;5093901;28;20470;-79
2021/01/06 12:03:56;;;;;;;185.68;49.78;;;3.30;91.60;;;;;;5090813;28;20024;-78
2021/01/06 12:06:47;;;;;;;361.50;76.38;;;3.30;91.70;;;;;;5089481;28;20103;-77
2021/01/06 12:09:37;;;;;;;344.75;71.63;;;3.30;91.60;;;;;;5091581;28;20039;-77
2021/01/06 12:12:31;;;;;;;313.65;70.93;;;3.30;91.60;;;;;;5091734;28;20020;-77
2021/01/06 12:15:22;;;;;;;181.43;58.08;;;3.30;91.60;;;;;;5087237;28;20044;-78
2021/01/06 12:17:55;;;;;;;273.10;67.28;;;3.30;91.60;;;;;;5088584;28;20028;-77
2021/01/06 12:20:25;;;;;;;238.50;74.90;;;3.30;91.70;;;;;;5076676;28;20028;-78
2021/01/06 12:23:13;;;;;;;300.88;70.60;;;3.30;91.70;;;;;;5093403;28;20434;-77
2021/01/06 12:25:55;;;;;;;251.32;52.40;;;3.30;91.60;;;;;;5076917;28;20094;-78
2021/01/06 12:29:04;;;;;;;196.38;45.75;;;3.20;91.60;;;;;;5055148;28;20623;-78
2021/01/06 12:31:49;;;;;;;135.25;40.58;;;3.20;91.80;;;;;;5011193;28;20022;-79
2021/01/06 12:34:26;;;;;;;125.57;37.22;;;3.20;91.70;;;;;;5085549;28;20432;-78
2021/01/06 12:37:29;;;;;;;186.90;40.85;;;3.30;91.80;;;;;;5093390;28;20419;-75
2021/01/06 12:40:04;;;;;;;147.82;35.50;;;3.30;91.70;;;;;;5088319;28;20024;-74
2021/01/06 12:42:42;;;;;;;104.05;30.85;;;3.40;91.80;;;;;;5091910;28;20020;-78
2021/01/06 12:45:14;;;;;;;104.22;32.63;;;3.40;91.70;;;;;;5092045;28;20017;-78
2021/01/06 12:47:55;;;;;;;217.55;45.85;;;3.40;91.70;;;;;;5092077;28;20043;-78
2021/01/06 12:50:33;;;;;;;171.25;42.38;;;3.50;91.70;;;;;;5092696;28;20024;-79
2021/01/06 12:53:24;;;;;;;120.50;35.47;;;3.50;91.70;;;;;;5092387;28;20035;-79
2021/01/06 12:55:54;;;;;;;138.38;41.55;;;3.50;91.70;;;;;;5093391;28;20461;-79
2021/01/06 12:58:40;;;;;;;233.77;57.53;;;3.60;91.70;;;;;;5092718;28;20020;-80
2021/01/06 13:01:22;;;;;;;128.02;42.60;;;3.60;91.70;;;;;;5094153;28;20040;-80
2021/01/06 13:04:13;;;;;;;109.75;37.22;;;3.60;91.60;;;;;;5092730;28;20039;-79
2021/01/06 13:06:56;;;;;;;87.93;30.42;;;3.60;91.70;;;;;;5093298;28;20113;-80
2021/01/06 13:09:49;;;;;;;76.80;27.65;;;3.60;91.70;;;;;;5092404;28;20024;-81
2021/01/06 13:12:47;;;;;;;101.95;31.67;;;3.70;91.70;;;;;;5093724;28;20024;-81
2021/01/06 13:15:30;;;;;;;83.43;29.30;;;3.70;91.70;;;;;;5092922;28;20024;-80
2021/01/06 13:18:04;;;;;;;105.10;33.85;;;3.70;91.70;;;;;;5093772;28;20089;-80
2021/01/06 13:20:42;;;;;;;85.60;31.15;;;3.70;91.80;;;;;;5092056;28;20020;-81